createdAt,value
2018-02-13T00:01:56.988Z,5.10
2018-02-13T00:04:24.458Z,5.10
2018-02-13T00:06:51.981Z,5.10
2018-02-13T00:09:20.513Z,5.00
2018-02-13T00:11:47.964Z,5.00
2018-02-13T00:14:15.399Z,4.90
2018-02-13T00:16:42.829Z,4.90
2018-02-13T00:19:11.020Z,5.00
2018-02-13T00:21:38.507Z,4.90
2018-02-13T00:24:05.986Z,4.90
2018-02-13T00:26:33.413Z,4.90
2018-02-13T00:29:00.867Z,5.00
2018-02-13T00:31:28.288Z,5.00
2018-02-13T00:33:56.484Z,5.30
2018-02-13T00:36:23.914Z,5.30
2018-02-13T00:38:51.340Z,5.30
2018-02-13T00:41:18.812Z,5.20
2018-02-13T00:43:46.256Z,5.00
2018-02-13T00:46:13.712Z,4.90
2018-02-13T00:48:41.138Z,5.10
2018-02-13T00:51:08.577Z,5.00
2018-02-13T00:53:36.015Z,4.80
2018-02-13T00:56:03.435Z,5.00
2018-02-13T00:58:30.873Z,4.80
2018-02-13T01:00:58.292Z,4.80
2018-02-13T01:03:26.506Z,4.90
2018-02-13T01:05:53.945Z,4.90
2018-02-13T01:08:22.358Z,5.20
2018-02-13T01:10:49.789Z,5.20
2018-02-13T01:13:17.236Z,5.00
2018-02-13T01:15:45.420Z,5.20
2018-02-13T01:18:12.849Z,5.20
2018-02-13T01:20:41.043Z,5.00
2018-02-13T01:23:08.507Z,4.90
2018-02-13T01:25:35.936Z,5.00
2018-02-13T01:28:03.382Z,5.00
2018-02-13T01:30:30.812Z,5.00
2018-02-13T01:32:58.236Z,4.80
2018-02-13T01:35:25.666Z,4.90
2018-02-13T01:37:53.895Z,4.80
2018-02-13T01:40:21.319Z,4.80
2018-02-13T01:42:48.741Z,4.70
2018-02-13T01:45:16.186Z,4.70
2018-02-13T01:47:43.617Z,4.60
2018-02-13T01:50:27.985Z,4.60
2018-02-13T01:52:55.421Z,4.60
2018-02-13T01:55:22.882Z,4.60
2018-02-13T01:57:50.300Z,4.60
2018-02-13T02:00:18.521Z,4.30
2018-02-13T02:02:45.954Z,4.30
2018-02-13T02:05:13.394Z,4.50
2018-02-13T02:07:41.588Z,4.50
2018-02-13T02:10:09.012Z,4.50
2018-02-13T02:12:36.435Z,4.40
2018-02-13T02:15:03.908Z,4.60
2018-02-13T02:17:31.326Z,4.70
2018-02-13T02:19:58.756Z,4.70
2018-02-13T02:22:26.962Z,4.60
2018-02-13T02:24:54.388Z,4.60
2018-02-13T02:27:22.576Z,4.70
2018-02-13T02:29:50.005Z,4.70
2018-02-13T02:32:17.436Z,4.40
2018-02-13T02:34:44.878Z,4.50
2018-02-13T02:37:12.292Z,4.30
2018-02-13T02:39:40.220Z,4.50
2018-02-13T02:42:07.648Z,4.50
2018-02-13T02:44:35.115Z,4.50
2018-02-13T02:47:02.552Z,4.50
2018-02-13T02:49:29.990Z,4.60
2018-02-13T02:51:58.213Z,4.80
2018-02-13T02:54:25.653Z,4.80
2018-02-13T02:56:53.122Z,4.90
2018-02-13T02:59:20.561Z,4.90
2018-02-13T03:01:47.996Z,4.70
2018-02-13T03:04:16.202Z,4.60
2018-02-13T03:06:43.660Z,4.60
2018-02-13T03:09:11.154Z,4.40
2018-02-13T03:11:38.581Z,3.80
2018-02-13T03:14:06.004Z,3.60
2018-02-13T03:16:33.449Z,3.70
2018-02-13T03:19:00.869Z,3.80
2018-02-13T03:21:28.310Z,3.90
2018-02-13T03:23:56.488Z,3.80
2018-02-13T03:26:23.930Z,3.70
2018-02-13T03:28:51.365Z,3.80
2018-02-13T03:31:19.619Z,3.90
2018-02-13T03:33:46.971Z,3.90
2018-02-13T03:36:15.184Z,3.80
2018-02-13T03:38:42.628Z,3.80
2018-02-13T03:41:10.824Z,3.80
2018-02-13T03:43:38.298Z,3.80
2018-02-13T03:46:05.742Z,4.00
2018-02-13T03:48:33.172Z,4.10
2018-02-13T03:51:01.377Z,3.90
2018-02-13T03:53:28.798Z,3.90
2018-02-13T03:55:56.989Z,3.60
2018-02-13T03:58:24.420Z,3.50
2018-02-13T04:00:52.620Z,3.90
2018-02-13T04:03:20.047Z,3.90
2018-02-13T04:05:47.468Z,3.60
2018-02-13T04:08:14.897Z,3.70
2018-02-13T04:10:42.348Z,3.70
2018-02-13T04:13:10.523Z,3.40
2018-02-13T04:15:37.989Z,3.40
2018-02-13T04:18:06.958Z,3.30
2018-02-13T04:20:35.169Z,3.40
2018-02-13T04:23:02.591Z,3.30
2018-02-13T04:25:30.802Z,3.10
2018-02-13T04:27:58.253Z,3.10
2018-02-13T04:30:25.723Z,3.10
2018-02-13T04:32:53.144Z,3.10
2018-02-13T04:35:21.341Z,2.90
2018-02-13T04:37:48.789Z,2.90
2018-02-13T04:40:16.216Z,2.80
2018-02-13T04:42:44.410Z,2.90
2018-02-13T04:45:12.610Z,2.90
2018-02-13T04:47:41.211Z,2.90
2018-02-13T04:50:08.646Z,2.90
2018-02-13T04:52:36.073Z,3.20
2018-02-13T04:55:04.259Z,2.90
2018-02-13T04:57:31.686Z,2.90
2018-02-13T04:59:59.103Z,2.90
2018-02-13T05:02:26.559Z,3.10
2018-02-13T05:04:53.983Z,3.10
2018-02-13T05:07:22.196Z,3.10
2018-02-13T05:09:49.651Z,3.10
2018-02-13T05:12:17.131Z,2.90
2018-02-13T05:14:45.277Z,2.90
2018-02-13T05:17:12.715Z,2.90
2018-02-13T05:19:41.921Z,2.90
2018-02-13T05:22:09.295Z,2.90
2018-02-13T05:24:36.724Z,3.00
2018-02-13T05:27:04.156Z,2.90
2018-02-13T05:29:32.348Z,2.90
2018-02-13T05:32:00.577Z,3.00
2018-02-13T05:34:28.008Z,3.00
2018-02-13T05:36:55.443Z,2.80
2018-02-13T05:39:23.668Z,2.80
2018-02-13T05:41:51.094Z,2.70
2018-02-13T05:44:18.563Z,2.80
2018-02-13T05:46:45.989Z,2.90
2018-02-13T05:49:14.176Z,2.60
2018-02-13T05:51:41.610Z,2.50
2018-02-13T05:54:09.834Z,2.60
2018-02-13T05:56:37.284Z,2.50
2018-02-13T05:59:04.717Z,2.50
2018-02-13T06:01:32.155Z,2.60
2018-02-13T06:04:00.377Z,3.30
2018-02-13T06:06:27.788Z,3.20
2018-02-13T06:08:55.989Z,3.40
2018-02-13T06:11:23.423Z,3.40
2018-02-13T06:13:51.651Z,3.50
2018-02-13T06:16:19.072Z,3.50
2018-02-13T06:18:46.504Z,3.40
2018-02-13T06:21:14.692Z,3.50
2018-02-13T06:23:42.884Z,3.40
2018-02-13T06:26:10.306Z,3.40
2018-02-13T06:28:37.811Z,3.40
2018-02-13T06:31:05.213Z,3.20
2018-02-13T06:33:32.676Z,3.30
2018-02-13T06:36:00.092Z,3.30
2018-02-13T06:38:27.557Z,3.50
2018-02-13T06:40:55.006Z,3.50
2018-02-13T06:43:22.410Z,3.50
2018-02-13T06:45:50.600Z,3.50
2018-02-13T06:48:18.811Z,3.20
2018-02-13T06:50:46.244Z,3.20
2018-02-13T06:53:13.678Z,3.00
2018-02-13T06:55:41.916Z,3.00
2018-02-13T06:58:09.351Z,2.90
2018-02-13T07:00:36.773Z,3.00
2018-02-13T07:03:04.968Z,3.10
2018-02-13T07:05:32.392Z,3.10
2018-02-13T07:08:00.590Z,3.00
2018-02-13T07:10:28.784Z,3.10
2018-02-13T07:12:56.208Z,3.10
2018-02-13T07:15:24.408Z,2.90
2018-02-13T07:17:51.844Z,2.90
2018-02-13T07:20:20.041Z,3.10
2018-02-13T07:22:47.476Z,3.10
2018-02-13T07:25:15.691Z,3.40
2018-02-13T07:27:43.109Z,3.30
2018-02-13T07:30:11.300Z,3.70
2018-02-13T07:32:38.732Z,3.70
2018-02-13T07:35:06.931Z,3.50
2018-02-13T07:37:34.409Z,3.50
2018-02-13T07:40:02.582Z,3.70
2018-02-13T07:42:30.018Z,3.70
2018-02-13T07:44:57.445Z,4.20
2018-02-13T07:47:24.872Z,4.10
2018-02-13T07:49:52.296Z,4.00
2018-02-13T07:52:20.540Z,4.00
2018-02-13T07:54:48.732Z,4.40
2018-02-13T07:57:16.935Z,4.00
2018-02-13T07:59:44.378Z,4.00
2018-02-13T08:02:11.804Z,3.80
2018-02-13T08:04:40.475Z,4.10
2018-02-13T08:07:07.875Z,4.90
2018-02-13T08:09:35.321Z,5.80
2018-02-13T08:12:02.767Z,6.00
2018-02-13T08:14:30.993Z,6.90
2018-02-13T08:16:58.412Z,6.90
2018-02-13T08:19:26.600Z,8.30
2018-02-13T08:21:54.024Z,8.30
2018-02-13T08:24:21.465Z,8.80
2018-02-13T08:26:48.889Z,9.00
2018-02-13T08:29:16.324Z,9.20
2018-02-13T08:31:43.753Z,10.00
2018-02-13T08:34:11.214Z,10.90
2018-02-13T08:36:39.412Z,12.10
2018-02-13T08:39:06.856Z,12.10
2018-02-13T08:41:35.077Z,11.10
2018-02-13T08:44:02.522Z,11.10
2018-02-13T08:46:29.948Z,11.50
2018-02-13T08:48:58.153Z,12.40
2018-02-13T08:51:25.611Z,12.40
2018-02-13T08:53:54.277Z,13.40
2018-02-13T08:56:22.456Z,14.50
2018-02-13T08:58:49.888Z,14.50
2018-02-13T09:01:18.088Z,15.20
2018-02-13T09:03:45.528Z,15.20
2018-02-13T09:06:13.724Z,16.10
2018-02-13T09:08:42.111Z,16.00
2018-02-13T09:11:09.561Z,16.10
2018-02-13T09:13:36.987Z,15.90
2018-02-13T09:16:05.196Z,15.20
2018-02-13T09:18:32.640Z,15.20
2018-02-13T09:21:00.078Z,15.90
2018-02-13T09:23:28.285Z,14.60
2018-02-13T09:25:55.919Z,14.60
2018-02-13T09:28:24.137Z,14.40
2018-02-13T09:30:51.560Z,14.40
2018-02-13T09:33:19.767Z,15.30
2018-02-13T09:35:47.208Z,15.30
2018-02-13T09:38:14.674Z,15.30
2018-02-13T09:40:42.265Z,16.40
2018-02-13T09:43:09.702Z,16.80
2018-02-13T09:45:37.123Z,16.20
2018-02-13T09:48:05.328Z,16.30
2018-02-13T09:50:32.804Z,16.30
2018-02-13T09:53:00.232Z,16.40
2018-02-13T09:55:27.658Z,16.70
2018-02-13T09:57:55.860Z,15.80
2018-02-13T10:00:23.305Z,15.80
2018-02-13T10:02:51.512Z,15.80
2018-02-13T10:05:18.939Z,15.80
2018-02-13T10:07:47.132Z,15.60
2018-02-13T10:10:14.564Z,15.60
2018-02-13T10:12:42.979Z,15.40
2018-02-13T10:15:10.445Z,16.40
2018-02-13T10:17:37.876Z,16.80
2018-02-13T10:20:05.324Z,17.70
2018-02-13T10:22:33.509Z,18.50
2018-02-13T10:25:00.940Z,18.50
2018-02-13T10:27:29.149Z,16.90
2018-02-13T10:29:56.613Z,16.90
2018-02-13T10:32:24.055Z,17.10
2018-02-13T10:34:52.259Z,16.80
2018-02-13T10:37:19.707Z,16.80
2018-02-13T10:39:47.144Z,17.00
2018-02-13T10:42:15.340Z,17.20
2018-02-13T10:44:42.783Z,17.20
2018-02-13T10:47:10.230Z,16.40
2018-02-13T10:49:37.697Z,16.50
2018-02-13T10:52:05.124Z,17.30
2018-02-13T10:54:33.331Z,17.50
2018-02-13T10:57:00.756Z,17.50
2018-02-13T10:59:28.968Z,16.70
2018-02-13T11:02:01.952Z,16.60
2018-02-13T11:04:29.384Z,16.30
2018-02-13T11:06:57.593Z,15.90
2018-02-13T11:09:25.004Z,15.90
2018-02-13T11:11:53.208Z,16.10
2018-02-13T11:14:20.756Z,16.10
2018-02-13T11:16:48.956Z,15.90
2018-02-13T11:19:16.396Z,15.90
2018-02-13T11:21:43.828Z,16.90
2018-02-13T11:24:11.263Z,16.50
2018-02-13T11:26:38.705Z,16.80
2018-02-13T11:29:06.153Z,17.30
2018-02-13T11:31:33.605Z,16.50
2018-02-13T11:34:01.033Z,17.80
2018-02-13T11:36:29.238Z,20.10
2018-02-13T11:38:56.659Z,20.00
2018-02-13T11:41:24.872Z,19.90
2018-02-13T11:43:52.325Z,19.80
2018-02-13T11:46:19.764Z,18.60
2018-02-13T11:48:47.192Z,18.30
2018-02-13T11:51:15.404Z,17.60
2018-02-13T11:53:42.849Z,17.60
2018-02-13T11:56:11.061Z,15.70
2018-02-13T11:58:39.247Z,15.80
2018-02-13T12:01:06.701Z,15.80
2018-02-13T12:03:34.148Z,16.60
2018-02-13T12:06:01.611Z,16.90
2018-02-13T12:08:29.032Z,17.20
2018-02-13T12:10:56.477Z,16.80
2018-02-13T12:13:24.680Z,16.70
2018-02-13T12:15:52.116Z,16.70
2018-02-13T12:18:19.545Z,16.80
2018-02-13T12:20:46.984Z,16.90
2018-02-13T12:23:14.425Z,16.40
2018-02-13T12:25:42.811Z,16.80
2018-02-13T12:28:10.240Z,17.30
2018-02-13T12:30:37.681Z,16.00
2018-02-13T12:33:05.872Z,18.40
2018-02-13T12:35:33.312Z,18.30
2018-02-13T12:38:00.757Z,18.60
2018-02-13T12:40:28.980Z,17.70
2018-02-13T12:42:56.464Z,17.70
2018-02-13T12:45:24.713Z,17.20
2018-02-13T12:47:52.132Z,17.10
2018-02-13T12:50:20.344Z,17.50
2018-02-13T12:52:47.781Z,17.50
2018-02-13T12:55:15.218Z,17.60
2018-02-13T12:57:42.844Z,18.30
2018-02-13T13:00:10.299Z,18.60
2018-02-13T13:02:37.737Z,19.10
2018-02-13T13:05:05.224Z,18.60
2018-02-13T13:07:32.669Z,18.70
2018-02-13T13:10:00.876Z,18.70
2018-02-13T13:12:28.328Z,18.60
2018-02-13T13:14:55.760Z,19.00
2018-02-13T13:17:23.232Z,19.20
2018-02-13T13:19:50.675Z,19.50
2018-02-13T13:22:18.150Z,17.90
2018-02-13T13:24:45.588Z,17.00
2018-02-13T13:27:13.049Z,17.40
2018-02-13T13:29:40.503Z,17.90
2018-02-13T13:32:07.952Z,17.90
2018-02-13T13:34:35.402Z,17.60
2018-02-13T13:37:02.840Z,17.40
2018-02-13T13:39:30.299Z,17.50
2018-02-13T13:41:57.737Z,17.70
2018-02-13T13:44:25.945Z,16.20
2018-02-13T13:46:53.384Z,16.20
2018-02-13T13:49:21.646Z,16.00
2018-02-13T13:51:49.857Z,14.60
2018-02-13T13:54:17.289Z,14.50
2018-02-13T13:56:44.768Z,14.10
2018-02-13T13:59:12.201Z,13.60
2018-02-13T14:01:40.410Z,12.90
2018-02-13T14:04:07.843Z,12.80
2018-02-13T14:06:35.280Z,12.70
2018-02-13T14:09:03.483Z,11.80
2018-02-13T14:11:30.925Z,11.80
2018-02-13T14:13:59.125Z,12.30
2018-02-13T14:16:26.745Z,12.30
2018-02-13T14:18:54.184Z,12.10
2018-02-13T14:21:21.611Z,11.90
2018-02-13T14:23:49.042Z,12.60
2018-02-13T14:26:16.464Z,13.40
2018-02-13T14:28:43.914Z,13.80
2018-02-13T14:31:11.350Z,14.20
2018-02-13T14:33:38.830Z,15.00
2018-02-13T14:36:06.265Z,14.60
2018-02-13T14:38:33.696Z,14.40
2018-02-13T14:41:01.170Z,14.30
2018-02-13T14:43:28.597Z,13.70
2018-02-13T14:45:56.811Z,12.90
2018-02-13T14:48:24.249Z,12.80
2018-02-13T14:50:51.687Z,12.90
2018-02-13T14:53:19.132Z,13.50
2018-02-13T14:55:47.338Z,13.70
2018-02-13T14:58:14.779Z,13.70
2018-02-13T15:00:43.129Z,13.50
2018-02-13T15:03:10.572Z,13.00
2018-02-13T15:05:38.021Z,12.80
2018-02-13T15:08:05.463Z,12.90
2018-02-13T15:10:32.898Z,12.80
2018-02-13T15:13:00.323Z,12.80
2018-02-13T15:15:31.110Z,12.40
2018-02-13T15:18:04.320Z,12.40
2018-02-13T15:20:32.524Z,12.50
2018-02-13T15:22:59.955Z,12.50
2018-02-13T15:25:27.402Z,12.10
2018-02-13T15:27:54.849Z,11.70
2018-02-13T15:30:22.294Z,11.50
2018-02-13T15:32:49.716Z,11.50
2018-02-13T15:35:18.334Z,11.30
2018-02-13T15:37:45.777Z,11.30
2018-02-13T15:40:13.209Z,10.90
2018-02-13T15:42:41.419Z,10.70
2018-02-13T15:45:08.872Z,10.70
2018-02-13T15:47:37.557Z,10.30
2018-02-13T15:50:04.997Z,10.20
2018-02-13T15:52:33.209Z,10.00
2018-02-13T15:55:00.640Z,9.90
2018-02-13T15:57:28.070Z,10.00
2018-02-13T15:59:55.516Z,10.30
2018-02-13T16:02:22.944Z,10.10
2018-02-13T16:04:50.408Z,10.10
2018-02-13T16:07:17.896Z,10.20
2018-02-13T16:09:45.334Z,10.10
2018-02-13T16:12:12.773Z,10.10
2018-02-13T16:14:40.204Z,10.30
2018-02-13T16:17:07.660Z,10.00
2018-02-13T16:19:35.084Z,9.70
2018-02-13T16:22:02.508Z,9.50
2018-02-13T16:24:30.480Z,9.50
2018-02-13T16:26:57.906Z,9.60
2018-02-13T16:29:25.342Z,9.90
2018-02-13T16:31:53.548Z,10.10
2018-02-13T16:34:21.006Z,10.10
2018-02-13T16:36:48.418Z,10.00
2018-02-13T16:39:16.622Z,10.10
2018-02-13T16:41:44.110Z,10.10
2018-02-13T16:44:11.500Z,10.20
2018-02-13T16:46:38.962Z,10.10
2018-02-13T16:49:06.416Z,10.00
2018-02-13T16:51:33.857Z,9.90
2018-02-13T16:54:01.309Z,9.70
2018-02-13T16:56:28.737Z,9.60
2018-02-13T16:58:56.160Z,9.40
2018-02-13T17:01:24.365Z,9.20
2018-02-13T17:03:51.812Z,9.20
2018-02-13T17:06:19.288Z,9.20
2018-02-13T17:08:46.720Z,9.30
2018-02-13T17:11:14.145Z,9.50
2018-02-13T17:13:41.568Z,9.30
2018-02-13T17:16:09.000Z,9.00
2018-02-13T17:18:36.438Z,9.10
2018-02-13T17:21:04.624Z,8.90
2018-02-13T17:23:32.048Z,8.90
2018-02-13T17:25:59.527Z,8.90
2018-02-13T17:28:27.737Z,8.70
2018-02-13T17:30:55.161Z,8.70
2018-02-13T17:33:23.368Z,9.00
2018-02-13T17:35:50.809Z,9.00
2018-02-13T17:38:18.240Z,9.10
2018-02-13T17:40:46.457Z,9.30
2018-02-13T17:43:13.889Z,9.20
2018-02-13T17:45:41.315Z,9.10
2018-02-13T17:48:08.753Z,9.20
2018-02-13T17:50:36.180Z,9.20
2018-02-13T17:53:03.617Z,9.20
2018-02-13T17:55:31.817Z,9.10
2018-02-13T17:57:59.245Z,9.10
2018-02-13T18:00:27.452Z,9.00
2018-02-13T18:02:54.897Z,8.90
2018-02-13T18:05:22.336Z,8.90
2018-02-13T18:07:50.563Z,8.80
2018-02-13T18:10:17.970Z,8.80
2018-02-13T18:12:46.179Z,8.70
2018-02-13T18:15:13.609Z,8.60
2018-02-13T18:17:41.027Z,8.60
2018-02-13T18:20:08.472Z,8.50
2018-02-13T18:22:35.879Z,8.50
2018-02-13T18:25:03.313Z,8.40
2018-02-13T18:27:30.734Z,8.30
2018-02-13T18:29:58.167Z,8.20
2018-02-13T18:32:25.612Z,8.10
2018-02-13T18:34:53.792Z,7.90
2018-02-13T18:37:21.216Z,7.90
2018-02-13T18:39:49.427Z,7.70
2018-02-13T18:42:16.856Z,7.70
2018-02-13T18:44:45.048Z,7.70
2018-02-13T18:47:12.475Z,7.80
2018-02-13T18:49:39.896Z,7.70
2018-02-13T18:54:34.752Z,7.70
2018-02-13T18:57:02.960Z,7.60
2018-02-13T18:59:30.400Z,7.60
2018-02-13T19:01:57.827Z,7.50
2018-02-13T19:04:25.276Z,7.40
2018-02-13T19:06:52.744Z,7.30
2018-02-13T19:09:20.165Z,7.30
2018-02-13T19:11:47.595Z,7.20
2018-02-13T19:14:15.016Z,7.20
2018-02-13T19:19:09.881Z,7.10
2018-02-13T19:21:37.313Z,6.90
2018-02-13T19:24:05.537Z,6.80
2018-02-13T19:26:32.960Z,6.70
2018-02-13T19:29:00.385Z,6.60
2018-02-13T19:31:27.838Z,6.40
2018-02-13T19:33:56.168Z,6.40
2018-02-13T19:36:23.595Z,6.40
2018-02-13T19:38:51.789Z,6.20
2018-02-13T19:41:19.217Z,6.20
2018-02-13T19:43:47.452Z,6.10
2018-02-13T19:46:14.840Z,6.10
2018-02-13T19:48:42.272Z,6.10
2018-02-13T19:51:09.712Z,6.00
2018-02-13T19:53:37.132Z,5.90
2018-02-13T19:56:04.601Z,5.90
2018-02-13T19:58:32.044Z,5.80
2018-02-13T20:01:00.247Z,5.70
2018-02-13T20:03:27.659Z,5.70
2018-02-13T20:05:55.083Z,5.60
2018-02-13T20:08:22.529Z,5.50
2018-02-13T20:10:49.957Z,5.60
2018-02-13T20:13:17.383Z,5.50
2018-02-13T20:15:44.821Z,5.40
2018-02-13T20:18:12.308Z,5.50
2018-02-13T20:20:40.532Z,5.40
2018-02-13T20:23:08.000Z,5.30
2018-02-13T20:25:35.434Z,5.30
2018-02-13T20:28:02.856Z,5.40
2018-02-13T20:30:31.061Z,5.30
2018-02-13T20:32:58.488Z,5.30
2018-02-13T20:35:26.694Z,5.30
2018-02-13T20:37:54.126Z,5.30
2018-02-13T20:40:22.326Z,5.10
2018-02-13T20:42:49.760Z,5.10
2018-02-13T20:45:17.176Z,5.20
2018-02-13T20:47:44.608Z,5.20
2018-02-13T20:50:12.078Z,5.20
2018-02-13T20:52:39.507Z,5.20
2018-02-13T20:55:07.407Z,5.10
2018-02-13T20:57:34.849Z,5.20
2018-02-13T21:00:02.265Z,5.10
2018-02-13T21:02:30.460Z,5.10
2018-02-13T21:04:57.915Z,5.10
2018-02-13T21:07:25.350Z,5.10
2018-02-13T21:09:52.776Z,5.20
2018-02-13T21:12:20.227Z,5.10
2018-02-13T21:14:47.633Z,5.10
2018-02-13T21:17:15.842Z,5.10
2018-02-13T21:19:44.193Z,5.10
2018-02-13T21:22:11.616Z,5.10
2018-02-13T21:24:39.057Z,5.00
2018-02-13T21:27:06.491Z,5.00
2018-02-13T21:29:33.912Z,5.00
2018-02-13T21:32:02.117Z,4.90
2018-02-13T21:34:29.549Z,4.90
2018-02-13T21:36:57.812Z,4.80
2018-02-13T21:39:26.012Z,4.80
2018-02-13T21:41:53.467Z,4.80
2018-02-13T21:44:21.665Z,4.70
2018-02-13T21:49:40.540Z,4.60
2018-02-13T21:52:07.988Z,4.40
2018-02-13T21:54:35.413Z,4.40
2018-02-13T21:57:02.848Z,4.20
2018-02-13T21:59:30.269Z,4.20
2018-02-13T22:01:57.692Z,4.20
2018-02-13T22:04:25.901Z,4.20
2018-02-13T22:06:53.351Z,4.10
2018-02-13T22:09:20.772Z,4.20
2018-02-13T22:11:48.964Z,4.30
2018-02-13T22:14:16.464Z,4.30
2018-02-13T22:16:45.425Z,4.20
2018-02-13T22:19:12.850Z,4.20
2018-02-13T22:21:40.402Z,4.30
2018-02-13T22:24:07.771Z,4.50
2018-02-13T22:26:35.976Z,4.90
2018-02-13T22:29:03.404Z,4.90
2018-02-13T22:31:32.398Z,5.10
2018-02-13T22:34:00.600Z,5.30
2018-02-13T22:36:28.033Z,5.30
2018-02-13T22:38:56.220Z,5.60
2018-02-13T22:41:23.652Z,5.60
2018-02-13T22:43:51.095Z,5.50
2018-02-13T22:46:18.532Z,5.30
2018-02-13T22:48:45.956Z,5.00
2018-02-13T22:51:13.379Z,4.80
2018-02-13T22:53:40.816Z,4.70
2018-02-13T22:56:08.237Z,4.50
2018-02-13T22:58:35.720Z,4.50
2018-02-13T23:01:03.121Z,4.60
2018-02-13T23:03:31.352Z,4.50
2018-02-13T23:05:58.768Z,4.50
2018-02-13T23:08:26.214Z,4.50
2018-02-13T23:10:54.397Z,4.50
2018-02-13T23:13:22.608Z,4.40
2018-02-13T23:15:50.040Z,4.40
2018-02-13T23:18:17.464Z,4.40
2018-02-13T23:20:45.000Z,4.30
2018-02-13T23:23:12.435Z,4.30
2018-02-13T23:25:39.864Z,4.20
2018-02-13T23:28:08.081Z,4.20
2018-02-13T23:30:35.524Z,4.20
2018-02-13T23:33:02.966Z,4.20
2018-02-13T23:35:30.383Z,4.10
2018-02-13T23:37:57.822Z,4.10
2018-02-13T23:40:25.252Z,4.10
2018-02-13T23:42:52.694Z,4.00
2018-02-13T23:45:20.112Z,4.00
2018-02-13T23:47:47.548Z,3.90
2018-02-13T23:50:15.021Z,3.90
2018-02-13T23:52:42.444Z,3.80
2018-02-13T23:55:09.933Z,3.90
2018-02-13T23:57:38.886Z,3.80
